Carbonville, Utah
Current Conditions -  °F | °C
As of 1:53 AM on Wednesday 22 Oct 2014 (Local Time) from KPUC Reporting Station
Clear Clear  
Wind Chill: 47°   Ceiling: Unl
Heat Index: 47°   Visibility: 10mi
Dew Point: 38°   Wind: 3mph
Humidity: 71%   Direction: 110°ESE
Pressure: 30.06"   Gusts: NA
Location:  39.5589°N, 110.911°W
Report Text: KPUC 220753Z AUTO 11003KT 10SM CLR 08/03 A3006 RMK AO2 SLP145 T00830033 TSNO
Loading
Personal Weather Stations






























Interactive Weather Map
Tropical Storm Tracking
New forecast layout! Learn more

10-Day Weather Forecast

Advertisements
Track Severe Weather on mobile